sensor_id;sensor_type;location;lat;lon;timestamp;temperature;humidity
38582;DHT22;24349;53.720;10.014;2023-02-27T00:00:34;-0.50;99.90
38582;DHT22;24349;53.720;10.014;2023-02-27T00:03:00;-0.40;99.90
38582;DHT22;24349;53.720;10.014;2023-02-27T00:05:26;-0.50;99.90
38582;DHT22;24349;53.720;10.014;2023-02-27T00:07:51;-0.50;99.90
38582;DHT22;24349;53.720;10.014;2023-02-27T00:10:17;-0.50;99.90
38582;DHT22;24349;53.720;10.014;2023-02-27T00:12:43;-0.50;99.90
38582;DHT22;24349;53.720;10.014;2023-02-27T00:15:14;-0.50;99.90
38582;DHT22;24349;53.720;10.014;2023-02-27T00:17:41;-0.40;99.90
38582;DHT22;24349;53.720;10.014;2023-02-27T00:20:09;-0.40;99.90
38582;DHT22;24349;53.720;10.014;2023-02-27T00:22:36;-0.40;99.90
38582;DHT22;24349;53.720;10.014;2023-02-27T00:25:03;-0.40;99.90
38582;DHT22;24349;53.720;10.014;2023-02-27T00:27:28;-0.30;99.90
38582;DHT22;24349;53.720;10.014;2023-02-27T00:29:54;-0.40;99.90
38582;DHT22;24349;53.720;10.014;2023-02-27T00:32:20;-0.40;99.90
38582;DHT22;24349;53.720;10.014;2023-02-27T00:34:45;-0.40;99.90
38582;DHT22;24349;53.720;10.014;2023-02-27T00:37:11;-0.40;99.90
38582;DHT22;24349;53.720;10.014;2023-02-27T00:39:36;-0.40;99.90
38582;DHT22;24349;53.720;10.014;2023-02-27T00:42:02;-0.40;99.90
38582;DHT22;24349;53.720;10.014;2023-02-27T00:44:28;-0.40;99.90
38582;DHT22;24349;53.720;10.014;2023-02-27T00:46:53;-0.50;99.90
38582;DHT22;24349;53.720;10.014;2023-02-27T00:49:19;-0.50;99.90
38582;DHT22;24349;53.720;10.014;2023-02-27T00:51:45;-0.60;99.90
38582;DHT22;24349;53.720;10.014;2023-02-27T00:54:11;-0.60;1.00
38582;DHT22;24349;53.720;10.014;2023-02-27T00:56:36;-0.60;1.00
38582;DHT22;24349;53.720;10.014;2023-02-27T00:59:02;-0.70;1.00
38582;DHT22;24349;53.720;10.014;2023-02-27T01:01:28;-0.70;1.00
38582;DHT22;24349;53.720;10.014;2023-02-27T01:03:54;-0.70;1.00
38582;DHT22;24349;53.720;10.014;2023-02-27T01:06:19;-0.70;1.00
38582;DHT22;24349;53.720;10.014;2023-02-27T01:08:45;-0.60;1.00
38582;DHT22;24349;53.720;10.014;2023-02-27T01:11:11;-0.60;1.00
38582;DHT22;24349;53.720;10.014;2023-02-27T01:13:36;-0.60;1.00
38582;DHT22;24349;53.720;10.014;2023-02-27T01:16:02;-0.60;1.00
38582;DHT22;24349;53.720;10.014;2023-02-27T01:18:28;-0.60;1.00
38582;DHT22;24349;53.720;10.014;2023-02-27T01:20:54;-0.70;1.00
38582;DHT22;24349;53.720;10.014;2023-02-27T01:23:21;-0.70;1.00
38582;DHT22;24349;53.720;10.014;2023-02-27T01:25:48;-0.80;99.90
38582;DHT22;24349;53.720;10.014;2023-02-27T01:28:14;-0.80;99.90
38582;DHT22;24349;53.720;10.014;2023-02-27T01:30:40;-0.90;99.90
38582;DHT22;24349;53.720;10.014;2023-02-27T01:33:06;-0.90;99.90
38582;DHT22;24349;53.720;10.014;2023-02-27T01:35:33;-1.00;99.90
38582;DHT22;24349;53.720;10.014;2023-02-27T01:38:00;-1.10;99.90
38582;DHT22;24349;53.720;10.014;2023-02-27T01:40:26;-1.10;99.90
38582;DHT22;24349;53.720;10.014;2023-02-27T01:42:52;-1.10;99.90
38582;DHT22;24349;53.720;10.014;2023-02-27T01:47:53;-1.00;99.90
38582;DHT22;24349;53.720;10.014;2023-02-27T01:50:20;-1.00;99.90
38582;DHT22;24349;53.720;10.014;2023-02-27T01:52:50;-1.00;99.90
38582;DHT22;24349;53.720;10.014;2023-02-27T01:55:18;-1.00;99.90
38582;DHT22;24349;53.720;10.014;2023-02-27T01:57:45;-1.00;99.90
38582;DHT22;24349;53.720;10.014;2023-02-27T02:00:12;-1.00;1.00
38582;DHT22;24349;53.720;10.014;2023-02-27T02:02:42;-1.10;1.00
38582;DHT22;24349;53.720;10.014;2023-02-27T02:05:12;-1.10;1.00
38582;DHT22;24349;53.720;10.014;2023-02-27T02:07:39;-1.10;1.00
38582;DHT22;24349;53.720;10.014;2023-02-27T02:10:06;-1.10;1.00
38582;DHT22;24349;53.720;10.014;2023-02-27T02:12:35;-1.10;1.00
38582;DHT22;24349;53.720;10.014;2023-02-27T02:15:02;-1.10;1.00
38582;DHT22;24349;53.720;10.014;2023-02-27T02:27:59;-1.10;99.90
38582;DHT22;24349;53.720;10.014;2023-02-27T02:30:56;-1.10;99.90
38582;DHT22;24349;53.720;10.014;2023-02-27T02:36:35;-1.10;99.90
38582;DHT22;24349;53.720;10.014;2023-02-27T02:41:57;-1.10;99.90
38582;DHT22;24349;53.720;10.014;2023-02-27T02:44:29;-1.10;99.90
38582;DHT22;24349;53.720;10.014;2023-02-27T02:47:05;-1.10;99.90
38582;DHT22;24349;53.720;10.014;2023-02-27T02:54:47;-1.20;99.90
38582;DHT22;24349;53.720;10.014;2023-02-27T02:59:52;-1.20;1.00
38582;DHT22;24349;53.720;10.014;2023-02-27T03:02:24;-1.20;1.00
38582;DHT22;24349;53.720;10.014;2023-02-27T03:05:17;-1.30;1.00
38582;DHT22;24349;53.720;10.014;2023-02-27T03:07:55;-1.40;1.00
38582;DHT22;24349;53.720;10.014;2023-02-27T03:10:26;-1.40;1.00
38582;DHT22;24349;53.720;10.014;2023-02-27T03:13:01;-1.40;1.00
38582;DHT22;24349;53.720;10.014;2023-02-27T03:15:39;-1.40;1.00
38582;DHT22;24349;53.720;10.014;2023-02-27T03:18:15;-1.40;1.00
38582;DHT22;24349;53.720;10.014;2023-02-27T03:21:06;-1.40;1.00
38582;DHT22;24349;53.720;10.014;2023-02-27T03:23:42;-1.40;1.00
38582;DHT22;24349;53.720;10.014;2023-02-27T03:26:09;-1.40;1.00
38582;DHT22;24349;53.720;10.014;2023-02-27T03:28:39;-1.40;1.00
38582;DHT22;24349;53.720;10.014;2023-02-27T03:31:18;-1.40;1.00
38582;DHT22;24349;53.720;10.014;2023-02-27T03:33:56;-1.40;1.00
38582;DHT22;24349;53.720;10.014;2023-02-27T03:36:38;-1.40;1.00
38582;DHT22;24349;53.720;10.014;2023-02-27T03:39:26;-1.30;1.00
38582;DHT22;24349;53.720;10.014;2023-02-27T03:44:57;-1.30;1.00
38582;DHT22;24349;53.720;10.014;2023-02-27T03:47:14;-1.40;1.00
38582;DHT22;24349;53.720;10.014;2023-02-27T03:49:39;-1.30;1.00
38582;DHT22;24349;53.720;10.014;2023-02-27T03:52:05;-1.30;1.00
38582;DHT22;24349;53.720;10.014;2023-02-27T03:54:37;-1.30;1.00
38582;DHT22;24349;53.720;10.014;2023-02-27T03:57:06;-1.30;1.00
38582;DHT22;24349;53.720;10.014;2023-02-27T03:59:33;-1.30;1.00
38582;DHT22;24349;53.720;10.014;2023-02-27T04:02:01;-1.30;1.00
38582;DHT22;24349;53.720;10.014;2023-02-27T04:04:29;-1.40;1.00
38582;DHT22;24349;53.720;10.014;2023-02-27T04:23:13;-1.60;1.00
38582;DHT22;24349;53.720;10.014;2023-02-27T04:26:00;-1.60;1.00
38582;DHT22;24349;53.720;10.014;2023-02-27T04:29:09;-1.70;1.00
38582;DHT22;24349;53.720;10.014;2023-02-27T04:34:40;-1.80;1.00
38582;DHT22;24349;53.720;10.014;2023-02-27T04:37:12;-1.90;1.00
38582;DHT22;24349;53.720;10.014;2023-02-27T04:39:59;-2.00;1.00
38582;DHT22;24349;53.720;10.014;2023-02-27T04:42:30;-1.90;2.00
38582;DHT22;24349;53.720;10.014;2023-02-27T04:45:03;-1.90;8.70
38582;DHT22;24349;53.720;10.014;2023-02-27T04:47:35;-1.80;10.60
38582;DHT22;24349;53.720;10.014;2023-02-27T04:50:20;-1.70;12.70
38582;DHT22;24349;53.720;10.014;2023-02-27T04:53:01;-1.70;11.80
38582;DHT22;24349;53.720;10.014;2023-02-27T04:55:44;-1.60;14.30
38582;DHT22;24349;53.720;10.014;2023-02-27T04:58:23;-1.60;12.10
38582;DHT22;24349;53.720;10.014;2023-02-27T05:00:54;-1.50;17.50
38582;DHT22;24349;53.720;10.014;2023-02-27T05:03:33;-1.50;17.10
38582;DHT22;24349;53.720;10.014;2023-02-27T05:06:01;-1.40;18.10
38582;DHT22;24349;53.720;10.014;2023-02-27T05:11:30;-1.40;19.40
38582;DHT22;24349;53.720;10.014;2023-02-27T05:16:40;-1.30;26.80
38582;DHT22;24349;53.720;10.014;2023-02-27T05:19:08;-1.30;30.00
38582;DHT22;24349;53.720;10.014;2023-02-27T05:24:31;-1.20;28.90
38582;DHT22;24349;53.720;10.014;2023-02-27T05:27:31;-1.20;29.40
38582;DHT22;24349;53.720;10.014;2023-02-27T05:32:57;-1.30;30.40
38582;DHT22;24349;53.720;10.014;2023-02-27T05:36:29;-1.20;35.10
38582;DHT22;24349;53.720;10.014;2023-02-27T05:38:33;-1.20;39.50
38582;DHT22;24349;53.720;10.014;2023-02-27T05:41:09;-1.30;37.60
38582;DHT22;24349;53.720;10.014;2023-02-27T05:43:42;-1.20;36.10
38582;DHT22;24349;53.720;10.014;2023-02-27T05:46:28;-1.30;39.30
38582;DHT22;24349;53.720;10.014;2023-02-27T05:49:38;-1.30;40.10
38582;DHT22;24349;53.720;10.014;2023-02-27T05:52:10;-1.30;39.90
38582;DHT22;24349;53.720;10.014;2023-02-27T05:57:11;-1.40;47.60
38582;DHT22;24349;53.720;10.014;2023-02-27T05:59:59;-1.50;99.90
38582;DHT22;24349;53.720;10.014;2023-02-27T06:02:27;-1.50;99.90
38582;DHT22;24349;53.720;10.014;2023-02-27T06:04:53;-1.50;99.90
38582;DHT22;24349;53.720;10.014;2023-02-27T06:07:19;-1.50;99.90
38582;DHT22;24349;53.720;10.014;2023-02-27T06:09:48;-1.40;99.90
38582;DHT22;24349;53.720;10.014;2023-02-27T06:12:14;-1.40;99.90
38582;DHT22;24349;53.720;10.014;2023-02-27T06:14:41;-1.40;99.90
38582;DHT22;24349;53.720;10.014;2023-02-27T06:17:06;-1.30;99.90
38582;DHT22;24349;53.720;10.014;2023-02-27T06:19:32;-1.30;99.90
38582;DHT22;24349;53.720;10.014;2023-02-27T06:22:01;-1.30;99.90
38582;DHT22;24349;53.720;10.014;2023-02-27T06:24:27;-1.30;99.90
38582;DHT22;24349;53.720;10.014;2023-02-27T06:26:55;-1.20;99.90
38582;DHT22;24349;53.720;10.014;2023-02-27T06:29:21;-1.20;99.90
38582;DHT22;24349;53.720;10.014;2023-02-27T06:31:47;-1.20;99.90
38582;DHT22;24349;53.720;10.014;2023-02-27T06:34:13;-1.20;99.90
38582;DHT22;24349;53.720;10.014;2023-02-27T06:36:38;-1.10;99.90
38582;DHT22;24349;53.720;10.014;2023-02-27T06:39:04;-0.90;99.90
38582;DHT22;24349;53.720;10.014;2023-02-27T06:41:30;-0.50;99.90
38582;DHT22;24349;53.720;10.014;2023-02-27T06:43:56;-0.10;99.90
38582;DHT22;24349;53.720;10.014;2023-02-27T06:46:23;0.30;99.90
38582;DHT22;24349;53.720;10.014;2023-02-27T06:48:48;0.70;99.90
38582;DHT22;24349;53.720;10.014;2023-02-27T06:51:14;1.30;99.90
38582;DHT22;24349;53.720;10.014;2023-02-27T06:53:40;1.80;99.90
38582;DHT22;24349;53.720;10.014;2023-02-27T06:56:05;2.20;99.90
38582;DHT22;24349;53.720;10.014;2023-02-27T06:58:31;2.50;99.90
38582;DHT22;24349;53.720;10.014;2023-02-27T07:01:00;3.10;99.90
38582;DHT22;24349;53.720;10.014;2023-02-27T07:03:25;3.40;99.90
38582;DHT22;24349;53.720;10.014;2023-02-27T07:05:51;3.90;99.90
38582;DHT22;24349;53.720;10.014;2023-02-27T07:08:17;4.00;99.90
38582;DHT22;24349;53.720;10.014;2023-02-27T07:10:43;4.20;99.90
38582;DHT22;24349;53.720;10.014;2023-02-27T07:13:12;4.90;99.90
38582;DHT22;24349;53.720;10.014;2023-02-27T07:15:38;5.50;99.90
38582;DHT22;24349;53.720;10.014;2023-02-27T07:18:04;5.90;99.90
38582;DHT22;24349;53.720;10.014;2023-02-27T07:20:29;6.30;99.90
38582;DHT22;24349;53.720;10.014;2023-02-27T07:22:55;6.60;99.90
38582;DHT22;24349;53.720;10.014;2023-02-27T07:25:21;6.80;99.90
38582;DHT22;24349;53.720;10.014;2023-02-27T07:27:46;6.80;99.90
38582;DHT22;24349;53.720;10.014;2023-02-27T07:30:14;7.00;99.90
38582;DHT22;24349;53.720;10.014;2023-02-27T07:32:40;7.20;99.90
38582;DHT22;24349;53.720;10.014;2023-02-27T07:35:06;7.80;99.90
38582;DHT22;24349;53.720;10.014;2023-02-27T07:37:32;7.90;99.90
38582;DHT22;24349;53.720;10.014;2023-02-27T07:39:58;8.40;99.90
38582;DHT22;24349;53.720;10.014;2023-02-27T07:42:23;8.70;99.90
38582;DHT22;24349;53.720;10.014;2023-02-27T07:44:49;8.40;99.90
38582;DHT22;24349;53.720;10.014;2023-02-27T07:47:14;8.40;99.90
38582;DHT22;24349;53.720;10.014;2023-02-27T07:49:42;8.50;99.90
38582;DHT22;24349;53.720;10.014;2023-02-27T07:52:08;9.30;99.90
38582;DHT22;24349;53.720;10.014;2023-02-27T07:54:34;10.20;99.90
38582;DHT22;24349;53.720;10.014;2023-02-27T07:57:02;10.90;99.90
38582;DHT22;24349;53.720;10.014;2023-02-27T07:59:28;10.10;99.90
38582;DHT22;24349;53.720;10.014;2023-02-27T08:01:53;9.90;99.90
38582;DHT22;24349;53.720;10.014;2023-02-27T08:04:19;10.40;99.90
38582;DHT22;24349;53.720;10.014;2023-02-27T08:06:45;11.10;99.90
38582;DHT22;24349;53.720;10.014;2023-02-27T08:09:10;11.70;99.90
38582;DHT22;24349;53.720;10.014;2023-02-27T08:11:36;12.20;99.90
38582;DHT22;24349;53.720;10.014;2023-02-27T08:14:02;12.00;99.90
38582;DHT22;24349;53.720;10.014;2023-02-27T08:16:28;11.70;99.90
38582;DHT22;24349;53.720;10.014;2023-02-27T08:18:54;11.60;99.90
38582;DHT22;24349;53.720;10.014;2023-02-27T08:21:20;12.10;99.90
38582;DHT22;24349;53.720;10.014;2023-02-27T08:23:46;12.50;99.90
38582;DHT22;24349;53.720;10.014;2023-02-27T08:26:11;12.70;99.90
38582;DHT22;24349;53.720;10.014;2023-02-27T08:28:37;12.70;99.90
38582;DHT22;24349;53.720;10.014;2023-02-27T08:31:03;13.40;99.90
38582;DHT22;24349;53.720;10.014;2023-02-27T08:33:29;13.90;99.90
38582;DHT22;24349;53.720;10.014;2023-02-27T08:35:54;13.00;99.90
38582;DHT22;24349;53.720;10.014;2023-02-27T08:38:21;12.70;99.90
38582;DHT22;24349;53.720;10.014;2023-02-27T08:40:48;11.70;99.90
38582;DHT22;24349;53.720;10.014;2023-02-27T08:43:14;12.20;99.90
38582;DHT22;24349;53.720;10.014;2023-02-27T08:45:39;13.10;99.90
38582;DHT22;24349;53.720;10.014;2023-02-27T08:48:05;13.60;99.90
38582;DHT22;24349;53.720;10.014;2023-02-27T08:50:31;13.80;99.90
38582;DHT22;24349;53.720;10.014;2023-02-27T08:52:56;14.20;99.90
38582;DHT22;24349;53.720;10.014;2023-02-27T08:55:22;14.60;99.90
38582;DHT22;24349;53.720;10.014;2023-02-27T08:57:47;14.90;99.90
38582;DHT22;24349;53.720;10.014;2023-02-27T09:00:13;15.20;99.90
38582;DHT22;24349;53.720;10.014;2023-02-27T09:02:39;15.30;99.90
38582;DHT22;24349;53.720;10.014;2023-02-27T09:05:05;14.80;99.90
38582;DHT22;24349;53.720;10.014;2023-02-27T09:07:31;14.90;99.90
38582;DHT22;24349;53.720;10.014;2023-02-27T09:09:58;14.40;99.80
38582;DHT22;24349;53.720;10.014;2023-02-27T09:12:24;14.40;99.90
38582;DHT22;24349;53.720;10.014;2023-02-27T09:14:50;14.10;99.90
38582;DHT22;24349;53.720;10.014;2023-02-27T09:17:16;14.10;99.90
38582;DHT22;24349;53.720;10.014;2023-02-27T09:19:41;14.10;99.90
38582;DHT22;24349;53.720;10.014;2023-02-27T09:22:07;14.20;99.90
38582;DHT22;24349;53.720;10.014;2023-02-27T09:24:32;14.80;99.10
38582;DHT22;24349;53.720;10.014;2023-02-27T09:26:58;15.10;99.70
38582;DHT22;24349;53.720;10.014;2023-02-27T09:29:23;14.40;99.10
38582;DHT22;24349;53.720;10.014;2023-02-27T09:31:51;14.20;99.90
38582;DHT22;24349;53.720;10.014;2023-02-27T09:34:17;14.60;98.90
38582;DHT22;24349;53.720;10.014;2023-02-27T09:36:43;14.50;99.40
38582;DHT22;24349;53.720;10.014;2023-02-27T09:39:09;15.00;98.80
38582;DHT22;24349;53.720;10.014;2023-02-27T09:44:38;14.90;99.20
38582;DHT22;24349;53.720;10.014;2023-02-27T09:47:05;15.90;98.40
38582;DHT22;24349;53.720;10.014;2023-02-27T09:50:02;16.10;97.50
38582;DHT22;24349;53.720;10.014;2023-02-27T09:52:31;16.50;97.20
38582;DHT22;24349;53.720;10.014;2023-02-27T09:54:58;16.00;96.10
38582;DHT22;24349;53.720;10.014;2023-02-27T10:08:33;13.20;97.10
38582;DHT22;24349;53.720;10.014;2023-02-27T10:11:06;12.90;97.30
38582;DHT22;24349;53.720;10.014;2023-02-27T10:13:49;12.30;98.60
38582;DHT22;24349;53.720;10.014;2023-02-27T10:16:21;11.90;97.30
38582;DHT22;24349;53.720;10.014;2023-02-27T10:18:57;12.00;98.00
38582;DHT22;24349;53.720;10.014;2023-02-27T10:21:42;11.30;98.70
38582;DHT22;24349;53.720;10.014;2023-02-27T10:24:28;10.80;99.90
38582;DHT22;24349;53.720;10.014;2023-02-27T10:26:57;10.70;99.90
38582;DHT22;24349;53.720;10.014;2023-02-27T10:29:29;10.50;99.90
38582;DHT22;24349;53.720;10.014;2023-02-27T10:32:13;10.10;99.90
38582;DHT22;24349;53.720;10.014;2023-02-27T10:34:43;9.80;99.90
38582;DHT22;24349;53.720;10.014;2023-02-27T10:37:13;9.60;99.90
38582;DHT22;24349;53.720;10.014;2023-02-27T10:39:58;10.20;99.90
38582;DHT22;24349;53.720;10.014;2023-02-27T10:42:26;11.30;99.90
38582;DHT22;24349;53.720;10.014;2023-02-27T10:44:54;12.40;99.90
38582;DHT22;24349;53.720;10.014;2023-02-27T10:47:22;12.60;99.20
38582;DHT22;24349;53.720;10.014;2023-02-27T10:49:49;11.90;99.90
38582;DHT22;24349;53.720;10.014;2023-02-27T10:52:16;11.00;99.90
38582;DHT22;24349;53.720;10.014;2023-02-27T10:54:43;10.10;99.90
38582;DHT22;24349;53.720;10.014;2023-02-27T10:57:29;9.80;99.90
38582;DHT22;24349;53.720;10.014;2023-02-27T11:00:06;9.50;99.90
38582;DHT22;24349;53.720;10.014;2023-02-27T11:02:39;9.40;99.90
38582;DHT22;24349;53.720;10.014;2023-02-27T11:05:18;9.50;99.90
38582;DHT22;24349;53.720;10.014;2023-02-27T11:07:44;9.40;99.90
38582;DHT22;24349;53.720;10.014;2023-02-27T11:12:40;9.20;99.90
38582;DHT22;24349;53.720;10.014;2023-02-27T11:17:42;9.00;99.90
38582;DHT22;24349;53.720;10.014;2023-02-27T11:20:35;8.80;99.90
38582;DHT22;24349;53.720;10.014;2023-02-27T11:23:23;8.70;99.90
38582;DHT22;24349;53.720;10.014;2023-02-27T11:25:49;8.70;99.90
38582;DHT22;24349;53.720;10.014;2023-02-27T11:31:04;8.60;99.90
38582;DHT22;24349;53.720;10.014;2023-02-27T11:33:34;8.40;99.90
38582;DHT22;24349;53.720;10.014;2023-02-27T11:36:02;8.00;99.90
38582;DHT22;24349;53.720;10.014;2023-02-27T11:38:30;8.00;99.90
38582;DHT22;24349;53.720;10.014;2023-02-27T11:41:01;8.20;99.90
38582;DHT22;24349;53.720;10.014;2023-02-27T11:43:34;8.30;99.90
38582;DHT22;24349;53.720;10.014;2023-02-27T11:46:10;8.60;99.90
38582;DHT22;24349;53.720;10.014;2023-02-27T11:48:51;8.80;99.90
38582;DHT22;24349;53.720;10.014;2023-02-27T11:59:50;8.50;99.90
38582;DHT22;24349;53.720;10.014;2023-02-27T12:02:42;8.60;99.90
38582;DHT22;24349;53.720;10.014;2023-02-27T12:05:17;8.40;99.90
38582;DHT22;24349;53.720;10.014;2023-02-27T12:08:01;8.30;99.90
38582;DHT22;24349;53.720;10.014;2023-02-27T12:13:31;8.20;99.90
38582;DHT22;24349;53.720;10.014;2023-02-27T12:18:36;7.90;99.90
38582;DHT22;24349;53.720;10.014;2023-02-27T12:21:06;8.20;99.90
38582;DHT22;24349;53.720;10.014;2023-02-27T12:23:43;8.50;99.90
38582;DHT22;24349;53.720;10.014;2023-02-27T12:26:37;8.90;99.90
38582;DHT22;24349;53.720;10.014;2023-02-27T12:34:46;8.90;99.90
38582;DHT22;24349;53.720;10.014;2023-02-27T12:37:16;9.20;99.90
38582;DHT22;24349;53.720;10.014;2023-02-27T12:39:44;9.50;99.90
38582;DHT22;24349;53.720;10.014;2023-02-27T12:59:25;11.90;98.30
38582;DHT22;24349;53.720;10.014;2023-02-27T13:04:59;10.70;98.80
38582;DHT22;24349;53.720;10.014;2023-02-27T13:09:57;10.40;99.00
38582;DHT22;24349;53.720;10.014;2023-02-27T13:12:43;10.30;99.00
38582;DHT22;24349;53.720;10.014;2023-02-27T13:20:59;10.10;99.90
38582;DHT22;24349;53.720;10.014;2023-02-27T13:23:52;10.30;99.90
38582;DHT22;24349;53.720;10.014;2023-02-27T13:26:21;9.90;99.50
38582;DHT22;24349;53.720;10.014;2023-02-27T13:28:48;9.80;99.90
38582;DHT22;24349;53.720;10.014;2023-02-27T13:31:24;9.80;99.90
38582;DHT22;24349;53.720;10.014;2023-02-27T13:39:00;9.80;99.90
38582;DHT22;24349;53.720;10.014;2023-02-27T13:43:56;9.30;99.70
38582;DHT22;24349;53.720;10.014;2023-02-27T13:46:27;9.30;99.90
38582;DHT22;24349;53.720;10.014;2023-02-27T13:54:23;9.30;99.90
38582;DHT22;24349;53.720;10.014;2023-02-27T13:59:32;10.10;99.00
38582;DHT22;24349;53.720;10.014;2023-02-27T14:07:10;9.90;98.90
38582;DHT22;24349;53.720;10.014;2023-02-27T14:09:38;9.80;98.90
38582;DHT22;24349;53.720;10.014;2023-02-27T14:12:06;9.60;99.90
38582;DHT22;24349;53.720;10.014;2023-02-27T14:14:47;9.50;99.50
38582;DHT22;24349;53.720;10.014;2023-02-27T14:17:44;9.40;99.50
38582;DHT22;24349;53.720;10.014;2023-02-27T14:20:47;9.30;99.90
38582;DHT22;24349;53.720;10.014;2023-02-27T14:23:18;9.00;99.90
38582;DHT22;24349;53.720;10.014;2023-02-27T14:25:57;8.90;99.90
38582;DHT22;24349;53.720;10.014;2023-02-27T14:28:48;8.80;99.90
38582;DHT22;24349;53.720;10.014;2023-02-27T14:31:35;8.50;99.90
38582;DHT22;24349;53.720;10.014;2023-02-27T14:34:03;8.30;99.90
38582;DHT22;24349;53.720;10.014;2023-02-27T14:36:51;8.20;99.90
38582;DHT22;24349;53.720;10.014;2023-02-27T14:39:32;8.10;99.90
38582;DHT22;24349;53.720;10.014;2023-02-27T14:42:24;7.90;99.90
38582;DHT22;24349;53.720;10.014;2023-02-27T14:44:54;7.90;99.90
38582;DHT22;24349;53.720;10.014;2023-02-27T14:47:32;7.90;99.90
38582;DHT22;24349;53.720;10.014;2023-02-27T14:50:00;7.90;99.90
38582;DHT22;24349;53.720;10.014;2023-02-27T14:52:29;7.90;99.90
38582;DHT22;24349;53.720;10.014;2023-02-27T14:55:21;7.80;99.90
38582;DHT22;24349;53.720;10.014;2023-02-27T15:03:37;7.60;99.90
38582;DHT22;24349;53.720;10.014;2023-02-27T15:08:47;7.60;99.90
38582;DHT22;24349;53.720;10.014;2023-02-27T15:11:15;7.60;99.90
38582;DHT22;24349;53.720;10.014;2023-02-27T15:13:42;7.50;99.90
38582;DHT22;24349;53.720;10.014;2023-02-27T15:18:58;7.50;99.90
38582;DHT22;24349;53.720;10.014;2023-02-27T15:21:28;7.50;99.90
38582;DHT22;24349;53.720;10.014;2023-02-27T15:23:59;7.40;99.90
38582;DHT22;24349;53.720;10.014;2023-02-27T15:26:27;7.40;99.90
38582;DHT22;24349;53.720;10.014;2023-02-27T15:28:57;7.30;99.90
38582;DHT22;24349;53.720;10.014;2023-02-27T15:31:25;7.40;99.90
38582;DHT22;24349;53.720;10.014;2023-02-27T15:33:54;7.40;99.90
38582;DHT22;24349;53.720;10.014;2023-02-27T15:36:23;7.40;99.90
38582;DHT22;24349;53.720;10.014;2023-02-27T15:39:25;7.50;99.90
38582;DHT22;24349;53.720;10.014;2023-02-27T15:41:58;7.40;99.90
38582;DHT22;24349;53.720;10.014;2023-02-27T15:44:28;7.40;99.90
38582;DHT22;24349;53.720;10.014;2023-02-27T15:46:55;7.40;99.90
38582;DHT22;24349;53.720;10.014;2023-02-27T15:49:23;7.40;99.90
38582;DHT22;24349;53.720;10.014;2023-02-27T15:52:14;7.50;99.90
38582;DHT22;24349;53.720;10.014;2023-02-27T15:54:52;7.40;99.90
38582;DHT22;24349;53.720;10.014;2023-02-27T15:57:20;7.30;99.90
38582;DHT22;24349;53.720;10.014;2023-02-27T15:59:48;7.30;99.90
38582;DHT22;24349;53.720;10.014;2023-02-27T16:02:20;7.20;99.90
38582;DHT22;24349;53.720;10.014;2023-02-27T16:04:47;7.10;99.90
38582;DHT22;24349;53.720;10.014;2023-02-27T16:07:17;7.20;99.90
38582;DHT22;24349;53.720;10.014;2023-02-27T16:09:52;7.10;99.90
38582;DHT22;24349;53.720;10.014;2023-02-27T16:12:35;7.10;99.90
38582;DHT22;24349;53.720;10.014;2023-02-27T16:20:44;7.10;99.90
38582;DHT22;24349;53.720;10.014;2023-02-27T16:23:25;7.00;99.90
38582;DHT22;24349;53.720;10.014;2023-02-27T16:28:50;6.90;99.90
38582;DHT22;24349;53.720;10.014;2023-02-27T16:31:36;6.80;99.90
38582;DHT22;24349;53.720;10.014;2023-02-27T16:36:54;6.80;99.90
38582;DHT22;24349;53.720;10.014;2023-02-27T16:39:20;6.70;99.90
38582;DHT22;24349;53.720;10.014;2023-02-27T16:41:45;6.70;99.90
38582;DHT22;24349;53.720;10.014;2023-02-27T16:44:11;6.70;99.90
38582;DHT22;24349;53.720;10.014;2023-02-27T16:46:36;6.70;99.90
38582;DHT22;24349;53.720;10.014;2023-02-27T16:49:02;6.60;99.90
38582;DHT22;24349;53.720;10.014;2023-02-27T16:51:31;6.50;99.90
38582;DHT22;24349;53.720;10.014;2023-02-27T16:53:57;6.50;99.90
38582;DHT22;24349;53.720;10.014;2023-02-27T16:56:25;6.50;99.90
38582;DHT22;24349;53.720;10.014;2023-02-27T16:58:51;6.40;99.90
38582;DHT22;24349;53.720;10.014;2023-02-27T17:01:17;6.30;99.90
38582;DHT22;24349;53.720;10.014;2023-02-27T17:03:44;6.20;99.90
38582;DHT22;24349;53.720;10.014;2023-02-27T17:06:10;6.10;99.90
38582;DHT22;24349;53.720;10.014;2023-02-27T17:08:38;6.10;99.90
38582;DHT22;24349;53.720;10.014;2023-02-27T17:11:04;5.90;99.90
38582;DHT22;24349;53.720;10.014;2023-02-27T17:13:31;6.00;99.90
38582;DHT22;24349;53.720;10.014;2023-02-27T17:15:57;6.00;99.90
38582;DHT22;24349;53.720;10.014;2023-02-27T17:18:23;6.00;99.90
38582;DHT22;24349;53.720;10.014;2023-02-27T17:20:50;6.00;99.90
38582;DHT22;24349;53.720;10.014;2023-02-27T17:23:16;6.00;99.90
38582;DHT22;24349;53.720;10.014;2023-02-27T17:25:42;6.00;99.90
38582;DHT22;24349;53.720;10.014;2023-02-27T17:28:08;5.90;99.90
38582;DHT22;24349;53.720;10.014;2023-02-27T17:30:33;5.90;99.90
38582;DHT22;24349;53.720;10.014;2023-02-27T17:32:59;5.80;99.90
38582;DHT22;24349;53.720;10.014;2023-02-27T17:35:24;5.60;99.90
38582;DHT22;24349;53.720;10.014;2023-02-27T17:37:51;5.70;99.90
38582;DHT22;24349;53.720;10.014;2023-02-27T17:40:16;5.60;99.90
38582;DHT22;24349;53.720;10.014;2023-02-27T17:42:42;5.50;99.90
38582;DHT22;24349;53.720;10.014;2023-02-27T17:45:08;5.40;99.90
38582;DHT22;24349;53.720;10.014;2023-02-27T17:47:34;5.20;99.90
38582;DHT22;24349;53.720;10.014;2023-02-27T17:50:03;5.10;99.90
38582;DHT22;24349;53.720;10.014;2023-02-27T17:52:29;5.10;99.90
38582;DHT22;24349;53.720;10.014;2023-02-27T17:54:54;5.20;99.90
38582;DHT22;24349;53.720;10.014;2023-02-27T17:57:20;5.20;99.90
38582;DHT22;24349;53.720;10.014;2023-02-27T17:59:46;5.20;99.90
38582;DHT22;24349;53.720;10.014;2023-02-27T18:02:13;5.30;99.90
38582;DHT22;24349;53.720;10.014;2023-02-27T18:04:39;5.30;99.90
38582;DHT22;24349;53.720;10.014;2023-02-27T18:07:05;5.40;99.90
38582;DHT22;24349;53.720;10.014;2023-02-27T18:09:31;5.60;99.90
38582;DHT22;24349;53.720;10.014;2023-02-27T18:11:56;5.60;99.90
38582;DHT22;24349;53.720;10.014;2023-02-27T18:14:23;5.60;99.90
38582;DHT22;24349;53.720;10.014;2023-02-27T18:16:48;5.60;99.90
38582;DHT22;24349;53.720;10.014;2023-02-27T18:19:14;5.60;99.90
38582;DHT22;24349;53.720;10.014;2023-02-27T18:21:40;5.60;99.90
38582;DHT22;24349;53.720;10.014;2023-02-27T18:24:12;5.60;99.90
38582;DHT22;24349;53.720;10.014;2023-02-27T18:26:38;5.50;99.90
38582;DHT22;24349;53.720;10.014;2023-02-27T18:29:07;5.40;99.90
38582;DHT22;24349;53.720;10.014;2023-02-27T18:31:35;5.40;99.90
38582;DHT22;24349;53.720;10.014;2023-02-27T18:34:02;5.40;99.90
38582;DHT22;24349;53.720;10.014;2023-02-27T18:36:28;5.50;99.90
38582;DHT22;24349;53.720;10.014;2023-02-27T18:38:54;5.50;99.90
38582;DHT22;24349;53.720;10.014;2023-02-27T18:41:20;5.50;99.90